createdAt,value
2023-05-07T00:02:26.813Z,94732.13
2023-05-07T00:04:53.917Z,94714.00
2023-05-07T00:07:20.815Z,94702.34
2023-05-07T00:09:47.562Z,94721.97
2023-05-07T00:12:14.794Z,94696.44
2023-05-07T00:14:41.861Z,94705.28
2023-05-07T00:17:08.988Z,94704.31
2023-05-07T00:19:35.765Z,94713.16
2023-05-07T00:22:02.567Z,94707.38
2023-05-07T00:24:29.465Z,94703.69
2023-05-07T00:26:56.541Z,94696.84
2023-05-07T00:29:23.466Z,94708.44
2023-05-07T00:31:51.508Z,94696.97
2023-05-07T00:34:18.302Z,94709.53
2023-05-07T00:36:45.656Z,94703.19
2023-05-07T00:39:12.522Z,94694.94
2023-05-07T00:41:39.349Z,94701.31
2023-05-07T00:44:06.261Z,94710.03
2023-05-07T00:46:34.172Z,94698.38
2023-05-07T00:49:01.878Z,94702.28
2023-05-07T00:51:30.018Z,94701.84
2023-05-07T00:53:56.901Z,94705.63
2023-05-07T00:56:24.770Z,94697.94
2023-05-07T00:58:51.809Z,94701.03
2023-05-07T01:01:18.538Z,94698.75
2023-05-07T01:03:46.185Z,94694.53
2023-05-07T01:06:17.642Z,94707.84
2023-05-07T01:08:46.279Z,94695.88
2023-05-07T01:11:13.608Z,94696.59
2023-05-07T01:13:41.433Z,94699.00
2023-05-07T01:16:10.708Z,94704.03
2023-05-07T01:18:37.950Z,94702.91
2023-05-07T01:21:06.211Z,94697.94
2023-05-07T01:23:34.767Z,94723.31
2023-05-07T01:26:01.616Z,94698.03
2023-05-07T01:28:30.357Z,94704.38
2023-05-07T01:31:03.733Z,94710.03
2023-05-07T01:33:36.112Z,94699.34
2023-05-07T01:36:07.353Z,94703.06
2023-05-07T01:38:35.607Z,94698.94
2023-05-07T01:41:03.143Z,94697.97
2023-05-07T01:43:31.844Z,94694.94
2023-05-07T01:46:00.132Z,94694.91
2023-05-07T01:48:27.581Z,94692.88
2023-05-07T01:50:55.023Z,94683.41
2023-05-07T01:53:21.760Z,94697.78
2023-05-07T01:55:48.517Z,94688.31
2023-05-07T01:58:16.319Z,94704.78
2023-05-07T02:00:43.162Z,94696.38
2023-05-07T02:03:10.376Z,94704.75
2023-05-07T02:05:47.322Z,94692.09
2023-05-07T02:08:31.167Z,94700.13
2023-05-07T02:10:58.598Z,94683.25
2023-05-07T02:13:28.168Z,94691.31
2023-05-07T02:15:55.454Z,94700.50
2023-05-07T02:18:24.395Z,94691.19
2023-05-07T02:20:51.313Z,94687.66
2023-05-07T02:23:18.200Z,94693.75
2023-05-07T02:25:45.615Z,94690.03
2023-05-07T02:28:12.972Z,94690.59
2023-05-07T02:30:46.526Z,94686.88
2023-05-07T02:33:15.051Z,94685.00
2023-05-07T02:35:42.271Z,94692.00
2023-05-07T02:38:11.755Z,94679.06
2023-05-07T02:40:40.738Z,94694.81
2023-05-07T02:43:07.696Z,94690.28
2023-05-07T02:45:35.103Z,94690.25
2023-05-07T02:48:03.267Z,94686.22
2023-05-07T02:50:30.829Z,94687.59
2023-05-07T02:52:57.810Z,94682.56
2023-05-07T02:55:24.790Z,94702.66
2023-05-07T02:57:51.659Z,94705.41
2023-05-07T03:00:20.358Z,94695.31
2023-05-07T03:02:58.469Z,94700.84
2023-05-07T03:05:25.304Z,94682.13
2023-05-07T03:07:52.254Z,94697.09
2023-05-07T03:10:19.700Z,94696.97
2023-05-07T03:12:46.518Z,94688.25
2023-05-07T03:15:16.912Z,94688.25
2023-05-07T03:17:43.787Z,94695.66
2023-05-07T03:20:12.127Z,94692.09
2023-05-07T03:22:40.817Z,94682.88
2023-05-07T03:25:08.537Z,94697.09
2023-05-07T03:27:35.708Z,94688.63
2023-05-07T03:30:02.689Z,94684.72
2023-05-07T03:32:29.596Z,94678.75
2023-05-07T03:34:56.977Z,94691.00
2023-05-07T03:37:24.429Z,94682.69
2023-05-07T03:39:51.724Z,94676.34
2023-05-07T03:42:19.112Z,94671.84
2023-05-07T03:44:49.042Z,94671.97
2023-05-07T03:47:15.789Z,94676.13
2023-05-07T03:49:42.518Z,94679.44
2023-05-07T03:52:09.479Z,94670.91
2023-05-07T03:54:36.344Z,94670.28
2023-05-07T03:57:03.367Z,94678.69
2023-05-07T03:59:30.118Z,94675.34
2023-05-07T04:01:57.791Z,94678.97
2023-05-07T04:04:26.548Z,94686.94
2023-05-07T04:06:54.393Z,94690.94
2023-05-07T04:09:22.392Z,94690.56
2023-05-07T04:11:49.110Z,94695.44
2023-05-07T04:14:15.875Z,94696.19
2023-05-07T04:16:42.745Z,94703.84
2023-05-07T04:19:09.579Z,94702.34
2023-05-07T04:21:39.567Z,94707.28
2023-05-07T04:24:06.560Z,94704.63
2023-05-07T04:26:33.820Z,94712.56
2023-05-07T04:29:01.046Z,94707.00
2023-05-07T04:31:33.109Z,94711.50
2023-05-07T04:34:00.110Z,94719.75
2023-05-07T04:36:28.715Z,94719.06
2023-05-07T04:39:04.095Z,94716.53
2023-05-07T04:41:31.521Z,94715.56
2023-05-07T04:44:00.060Z,94717.94
2023-05-07T04:46:29.853Z,94722.97
2023-05-07T04:48:58.282Z,94722.66
2023-05-07T04:51:25.075Z,94725.72
2023-05-07T04:53:51.916Z,94719.94
2023-05-07T04:56:18.763Z,94716.59
2023-05-07T04:58:47.453Z,94719.38
2023-05-07T05:01:16.146Z,94715.78
2023-05-07T05:03:43.268Z,94726.56
2023-05-07T05:06:11.096Z,94731.25
2023-05-07T05:08:38.317Z,94711.56
2023-05-07T05:11:05.509Z,94730.56
2023-05-07T05:13:34.772Z,94727.47
2023-05-07T05:16:07.947Z,94731.84
2023-05-07T05:18:35.961Z,94738.53
2023-05-07T05:21:02.781Z,94745.25
2023-05-07T05:23:30.190Z,94740.28
2023-05-07T05:26:01.166Z,94740.44
2023-05-07T05:28:31.571Z,94738.97
2023-05-07T05:30:58.416Z,94737.00
2023-05-07T05:33:27.557Z,94735.22
2023-05-07T05:35:57.058Z,94736.22
2023-05-07T05:38:23.889Z,94731.16
2023-05-07T05:40:51.206Z,94727.66
2023-05-07T05:43:19.095Z,94724.53
2023-05-07T05:45:45.861Z,94723.50
2023-05-07T05:48:13.318Z,94717.53
2023-05-07T05:50:40.808Z,94714.25
2023-05-07T05:53:07.945Z,94713.31
2023-05-07T05:55:35.415Z,94705.00
2023-05-07T05:58:02.482Z,94710.97
2023-05-07T06:00:31.180Z,94716.59
2023-05-07T06:03:03.187Z,94713.69
2023-05-07T06:05:30.129Z,94714.41
2023-05-07T06:07:57.711Z,94710.84
2023-05-07T06:10:25.623Z,94712.53
2023-05-07T06:12:52.491Z,94714.44
2023-05-07T06:15:19.612Z,94706.41
2023-05-07T06:17:46.814Z,94705.50
2023-05-07T06:20:14.041Z,94717.47
2023-05-07T06:22:42.041Z,94719.19
2023-05-07T06:25:11.725Z,94706.38
2023-05-07T06:27:40.703Z,94711.00
2023-05-07T06:30:08.715Z,94707.06
2023-05-07T06:32:35.714Z,94709.38
2023-05-07T06:35:02.464Z,94703.97
2023-05-07T06:37:29.182Z,94713.31
2023-05-07T06:40:00.655Z,94727.81
2023-05-07T06:42:28.179Z,94716.22
2023-05-07T06:44:59.258Z,94730.19
2023-05-07T06:47:27.098Z,94730.91
2023-05-07T06:49:55.881Z,94728.25
2023-05-07T06:52:26.119Z,94709.72
2023-05-07T06:54:54.432Z,94702.59
2023-05-07T06:57:23.106Z,94708.53
2023-05-07T06:59:50.297Z,94726.25
2023-05-07T07:02:18.309Z,94731.25
2023-05-07T07:04:46.786Z,94737.84
2023-05-07T07:07:14.452Z,94708.25
2023-05-07T07:09:43.687Z,94725.53
2023-05-07T07:12:11.192Z,94741.09
2023-05-07T07:14:40.374Z,94726.91
2023-05-07T07:17:07.791Z,94728.84
2023-05-07T07:19:35.198Z,94731.91
2023-05-07T07:22:03.843Z,94718.50
2023-05-07T07:24:30.728Z,94742.56
2023-05-07T07:27:01.657Z,94749.44
2023-05-07T07:29:29.248Z,94716.75
2023-05-07T07:31:57.656Z,94725.09
2023-05-07T07:34:25.281Z,94735.91
2023-05-07T07:36:52.139Z,94717.75
2023-05-07T07:39:20.346Z,94718.84
2023-05-07T07:41:50.382Z,94703.06
2023-05-07T07:44:19.067Z,94714.16
2023-05-07T07:46:51.739Z,94709.84
2023-05-07T07:49:20.197Z,94763.19
2023-05-07T07:51:47.669Z,94730.72
2023-05-07T07:54:14.765Z,94726.00
2023-05-07T07:56:42.500Z,94740.41
2023-05-07T07:59:10.820Z,94736.16
2023-05-07T08:01:40.450Z,94725.47
2023-05-07T08:04:08.672Z,94712.06
2023-05-07T08:06:39.485Z,94703.09
2023-05-07T08:09:07.177Z,94725.97
2023-05-07T08:11:34.284Z,94729.28
2023-05-07T08:14:01.823Z,94747.06
2023-05-07T08:16:31.051Z,94744.34
2023-05-07T08:18:59.715Z,94765.88
2023-05-07T08:21:27.276Z,94757.75
2023-05-07T08:23:54.838Z,94721.50
2023-05-07T08:26:22.050Z,94744.13
2023-05-07T08:28:49.515Z,94761.25
2023-05-07T08:31:16.535Z,94744.88
2023-05-07T08:33:45.702Z,94733.97
2023-05-07T08:36:12.561Z,94722.22
2023-05-07T08:38:42.141Z,94729.28
2023-05-07T08:41:11.309Z,94729.31
2023-05-07T08:43:42.613Z,94732.03
2023-05-07T08:46:12.549Z,94734.22
2023-05-07T08:48:43.466Z,94735.94
2023-05-07T08:51:14.541Z,94744.38
2023-05-07T08:53:42.714Z,94744.13
2023-05-07T08:56:13.518Z,94726.16
2023-05-07T08:58:41.007Z,94768.03
2023-05-07T09:01:15.399Z,94737.88
2023-05-07T09:03:47.901Z,94726.53
2023-05-07T09:06:17.892Z,94750.69
2023-05-07T09:08:54.752Z,94763.84
2023-05-07T09:11:26.091Z,94746.03
2023-05-07T09:13:57.550Z,94764.84
2023-05-07T09:16:26.857Z,94747.84
2023-05-07T09:18:56.149Z,94761.75
2023-05-07T09:21:24.371Z,94740.84
2023-05-07T09:23:56.418Z,94748.13
2023-05-07T09:26:29.845Z,94715.84
2023-05-07T09:28:56.691Z,94782.00
2023-05-07T09:31:24.772Z,94756.03
2023-05-07T09:33:54.454Z,94704.47
2023-05-07T09:36:21.924Z,94748.44
2023-05-07T09:38:52.477Z,94754.69
2023-05-07T09:41:20.430Z,94743.22
2023-05-07T09:44:02.725Z,94804.72
2023-05-07T09:46:39.538Z,94777.66
2023-05-07T09:49:24.603Z,94784.75
2023-05-07T09:52:00.136Z,94762.59
2023-05-07T09:54:28.450Z,94737.44
2023-05-07T09:56:58.068Z,94741.47
2023-05-07T09:59:29.942Z,94791.47
2023-05-07T10:02:05.023Z,94769.59
2023-05-07T10:04:38.716Z,94787.06
2023-05-07T10:07:07.076Z,94756.09
2023-05-07T10:09:39.707Z,94718.91
2023-05-07T10:12:11.189Z,94725.97
2023-05-07T10:14:38.498Z,94779.63
2023-05-07T10:17:08.031Z,94757.22
2023-05-07T10:19:35.898Z,94800.44
2023-05-07T10:22:06.232Z,94819.16
2023-05-07T10:24:39.040Z,94780.56
2023-05-07T10:27:13.581Z,94753.03
2023-05-07T10:29:50.686Z,94765.84
2023-05-07T10:32:39.364Z,94728.94
2023-05-07T10:35:15.283Z,94750.59
2023-05-07T10:37:42.899Z,94759.88
2023-05-07T10:40:11.820Z,94717.41
2023-05-07T10:42:38.870Z,94717.25
2023-05-07T10:45:15.790Z,94763.31
2023-05-07T10:48:29.039Z,94737.59
2023-05-07T10:51:21.630Z,94744.16
2023-05-07T10:54:12.317Z,94750.63
2023-05-07T10:56:45.529Z,94774.19
2023-05-07T10:59:31.776Z,94790.09
2023-05-07T11:02:07.581Z,94770.69
2023-05-07T11:04:43.004Z,94732.34
2023-05-07T11:07:31.170Z,94752.72
2023-05-07T11:10:07.245Z,94729.72
2023-05-07T11:12:57.322Z,94739.97
2023-05-07T11:15:38.828Z,94769.34
2023-05-07T11:18:14.668Z,94755.59
2023-05-07T11:20:57.897Z,94761.75
2023-05-07T11:23:35.170Z,94786.81
2023-05-07T11:26:15.698Z,94740.72
2023-05-07T11:28:44.786Z,94754.50
2023-05-07T11:31:12.706Z,94729.00
2023-05-07T11:33:41.389Z,94752.47
2023-05-07T11:36:13.716Z,94734.22
2023-05-07T11:38:46.068Z,94762.91
2023-05-07T11:41:12.827Z,94714.91
2023-05-07T11:43:54.104Z,94687.56
2023-05-07T11:46:21.529Z,94714.53
2023-05-07T11:48:48.688Z,94718.38
2023-05-07T11:51:20.508Z,94742.16
2023-05-07T11:53:47.284Z,94699.50
2023-05-07T11:56:16.306Z,94716.59
2023-05-07T11:58:44.522Z,94696.06
2023-05-07T12:01:12.795Z,94683.78
2023-05-07T12:03:44.954Z,94704.25
2023-05-07T12:06:13.076Z,94708.00
2023-05-07T12:08:42.112Z,94724.56
2023-05-07T12:11:12.420Z,94714.41
2023-05-07T12:13:39.328Z,94714.50
2023-05-07T12:16:08.091Z,94709.84
2023-05-07T12:18:38.338Z,94694.88
2023-05-07T12:21:07.735Z,94698.53
2023-05-07T12:23:36.796Z,94681.38
2023-05-07T12:26:07.080Z,94683.78
2023-05-07T12:28:39.726Z,94704.25
2023-05-07T12:31:07.231Z,94688.94
2023-05-07T12:33:35.360Z,94666.94
2023-05-07T12:36:06.981Z,94692.09
2023-05-07T12:38:38.425Z,94665.53
2023-05-07T12:41:05.983Z,94683.34
2023-05-07T12:43:32.794Z,94691.13
2023-05-07T12:46:02.829Z,94667.25
2023-05-07T12:48:29.843Z,94658.91
2023-05-07T12:50:58.330Z,94619.75
2023-05-07T12:53:27.314Z,94652.41
2023-05-07T12:55:56.715Z,94662.09
2023-05-07T12:58:28.282Z,94631.59
2023-05-07T13:01:00.377Z,94671.13
2023-05-07T13:03:33.357Z,94641.63
2023-05-07T13:06:03.631Z,94662.41
2023-05-07T13:08:35.158Z,94654.59
2023-05-07T13:11:06.138Z,94619.13
2023-05-07T13:13:34.197Z,94626.38
2023-05-07T13:16:03.020Z,94640.63
2023-05-07T13:18:33.997Z,94662.53
2023-05-07T13:21:01.972Z,94694.22
2023-05-07T13:23:29.810Z,94651.00
2023-05-07T13:25:57.649Z,94658.59
2023-05-07T13:28:25.394Z,94649.16
2023-05-07T13:30:55.700Z,94641.78
2023-05-07T13:33:22.772Z,94641.44
2023-05-07T13:35:49.627Z,94637.44
2023-05-07T13:38:17.269Z,94630.09
2023-05-07T13:40:44.092Z,94633.59
2023-05-07T13:43:11.846Z,94679.94
2023-05-07T13:45:38.965Z,94626.41
2023-05-07T13:48:06.035Z,94642.38
2023-05-07T13:50:33.096Z,94643.91
2023-05-07T13:53:00.122Z,94631.41
2023-05-07T13:55:27.146Z,94648.88
2023-05-07T13:58:02.193Z,94609.25
2023-05-07T14:00:30.338Z,94649.31
2023-05-07T14:02:58.973Z,94647.84
2023-05-07T14:05:26.077Z,94664.97
2023-05-07T14:07:53.163Z,94651.25
2023-05-07T14:10:20.950Z,94663.41
2023-05-07T14:12:48.690Z,94659.84
2023-05-07T14:15:17.286Z,94668.09
2023-05-07T14:17:45.127Z,94653.25
2023-05-07T14:20:13.950Z,94675.34
2023-05-07T14:22:41.048Z,94647.34
2023-05-07T14:25:08.465Z,94651.66
2023-05-07T14:27:35.201Z,94638.47
2023-05-07T14:30:01.982Z,94648.59
2023-05-07T14:32:29.052Z,94642.00
2023-05-07T14:34:55.844Z,94643.25
2023-05-07T14:37:22.550Z,94661.56
2023-05-07T14:39:51.020Z,94704.97
2023-05-07T14:42:18.892Z,94653.88
2023-05-07T14:44:48.854Z,94660.56
2023-05-07T14:47:17.578Z,94678.59
2023-05-07T14:49:45.912Z,94678.53
2023-05-07T14:52:13.404Z,94692.63
2023-05-07T14:54:40.173Z,94677.19
2023-05-07T14:57:07.934Z,94691.06
2023-05-07T14:59:35.185Z,94684.78
2023-05-07T15:02:04.665Z,94703.16
2023-05-07T15:04:33.954Z,94682.91
2023-05-07T15:07:01.010Z,94681.69
2023-05-07T15:09:27.816Z,94682.72
2023-05-07T15:11:54.812Z,94676.53
2023-05-07T15:14:23.118Z,94669.03
2023-05-07T15:16:50.880Z,94695.84
2023-05-07T15:19:18.111Z,94684.03
2023-05-07T15:21:45.055Z,94655.09
2023-05-07T15:24:11.820Z,94676.25
2023-05-07T15:26:38.656Z,94659.69
2023-05-07T15:29:11.116Z,94664.53
2023-05-07T15:31:40.112Z,94677.97
2023-05-07T15:34:07.393Z,94669.22
2023-05-07T15:36:34.794Z,94680.28
2023-05-07T15:39:05.657Z,94682.19
2023-05-07T15:41:33.142Z,94712.13
2023-05-07T15:44:00.434Z,94690.25
2023-05-07T15:46:28.223Z,94674.28
2023-05-07T15:48:55.860Z,94679.25
2023-05-07T15:51:23.709Z,94668.94
2023-05-07T15:53:52.070Z,94682.41
2023-05-07T15:56:19.085Z,94662.16
2023-05-07T15:58:46.517Z,94649.84
2023-05-07T16:01:13.316Z,94633.53
2023-05-07T16:03:41.258Z,94657.44
2023-05-07T16:06:12.351Z,94670.47
2023-05-07T16:08:40.465Z,94674.56
2023-05-07T16:11:07.305Z,94683.94
2023-05-07T16:13:35.455Z,94648.66
2023-05-07T16:16:02.460Z,94652.34
2023-05-07T16:18:29.596Z,94657.75
2023-05-07T16:20:56.499Z,94644.28
2023-05-07T16:23:23.383Z,94642.31
2023-05-07T16:25:50.123Z,94663.94
2023-05-07T16:28:16.959Z,94654.66
2023-05-07T16:30:44.074Z,94666.69
2023-05-07T16:33:11.112Z,94683.59
2023-05-07T16:35:37.879Z,94636.22
2023-05-07T16:38:10.084Z,94708.94
2023-05-07T16:40:40.699Z,94695.38
2023-05-07T16:43:07.787Z,94676.69
2023-05-07T16:45:34.754Z,94681.63
2023-05-07T16:48:03.293Z,94692.97
2023-05-07T16:50:30.492Z,94683.28
2023-05-07T16:52:57.210Z,94657.38
2023-05-07T16:55:24.093Z,94684.88
2023-05-07T16:57:51.007Z,94673.53
2023-05-07T17:00:18.198Z,94645.81
2023-05-07T17:02:47.389Z,94664.13
2023-05-07T17:05:14.672Z,94681.72
2023-05-07T17:07:41.855Z,94656.59
2023-05-07T17:10:08.990Z,94660.56
2023-05-07T17:12:36.047Z,94665.69
2023-05-07T17:15:04.037Z,94654.75
2023-05-07T17:17:30.811Z,94650.31
2023-05-07T17:19:59.089Z,94684.19
2023-05-07T17:22:26.627Z,94678.63
2023-05-07T17:24:53.364Z,94646.38
2023-05-07T17:27:20.993Z,94678.13
2023-05-07T17:29:47.720Z,94690.78
2023-05-07T17:32:14.898Z,94707.53
2023-05-07T17:34:41.763Z,94662.94
2023-05-07T17:37:08.687Z,94673.38
2023-05-07T17:39:35.723Z,94678.91
2023-05-07T17:42:02.680Z,94669.47
2023-05-07T17:44:29.485Z,94699.59
2023-05-07T17:46:57.036Z,94719.44
2023-05-07T17:49:24.008Z,94703.53
2023-05-07T17:51:54.878Z,94713.66
2023-05-07T17:54:24.320Z,94727.09
2023-05-07T17:56:51.241Z,94717.16
2023-05-07T17:59:18.242Z,94720.63
2023-05-07T18:01:45.698Z,94702.84
2023-05-07T18:04:12.476Z,94733.91
2023-05-07T18:06:40.005Z,94736.88
2023-05-07T18:09:07.168Z,94706.41
2023-05-07T18:11:34.159Z,94692.94
2023-05-07T18:14:01.266Z,94720.34
2023-05-07T18:16:28.160Z,94744.13
2023-05-07T18:18:55.765Z,94744.44
2023-05-07T18:21:22.506Z,94750.06
2023-05-07T18:23:49.875Z,94722.28
2023-05-07T18:26:20.192Z,94746.38
2023-05-07T18:28:50.244Z,94721.78
2023-05-07T18:31:21.172Z,94727.38
2023-05-07T18:33:53.195Z,94736.25
2023-05-07T18:36:20.242Z,94746.06
2023-05-07T18:38:47.020Z,94759.34
2023-05-07T18:41:13.829Z,94737.00
2023-05-07T18:43:40.693Z,94746.34
2023-05-07T18:46:07.490Z,94738.22
2023-05-07T18:48:34.416Z,94740.75
2023-05-07T18:51:01.491Z,94741.19
2023-05-07T18:53:29.078Z,94744.44
2023-05-07T18:55:55.847Z,94726.13
2023-05-07T18:58:22.667Z,94756.50
2023-05-07T19:00:50.062Z,94750.53
2023-05-07T19:03:17.274Z,94748.72
2023-05-07T19:05:45.269Z,94741.44
2023-05-07T19:08:12.291Z,94746.84
2023-05-07T19:10:39.251Z,94741.88
2023-05-07T19:13:06.782Z,94756.72
2023-05-07T19:15:33.786Z,94770.59
2023-05-07T19:18:00.948Z,94757.13
2023-05-07T19:20:29.162Z,94762.91
2023-05-07T19:22:56.654Z,94765.63
2023-05-07T19:25:23.807Z,94756.66
2023-05-07T19:27:51.535Z,94789.59
2023-05-07T19:30:19.049Z,94787.13
2023-05-07T19:32:46.799Z,94784.41
2023-05-07T19:35:13.852Z,94792.72
2023-05-07T19:37:41.134Z,94796.56
2023-05-07T19:40:09.489Z,94794.63
2023-05-07T19:42:36.669Z,94782.53
2023-05-07T19:45:04.906Z,94792.75
2023-05-07T19:47:32.592Z,94804.06
2023-05-07T19:49:59.498Z,94820.19
2023-05-07T19:52:26.822Z,94822.03
2023-05-07T19:54:53.594Z,94802.34
2023-05-07T19:57:20.594Z,94784.75
2023-05-07T19:59:47.681Z,94800.09
2023-05-07T20:02:16.086Z,94801.34
2023-05-07T20:04:43.053Z,94818.56
2023-05-07T20:07:09.870Z,94810.25
2023-05-07T20:09:36.968Z,94815.69
2023-05-07T20:12:04.183Z,94810.38
2023-05-07T20:14:31.719Z,94827.41
2023-05-07T20:16:58.714Z,94827.97
2023-05-07T20:19:26.051Z,94831.09
2023-05-07T20:21:53.719Z,94809.69
2023-05-07T20:24:20.832Z,94843.63
2023-05-07T20:26:47.713Z,94815.34
2023-05-07T20:29:14.434Z,94808.06
2023-05-07T20:31:41.762Z,94828.28
2023-05-07T20:34:12.078Z,94843.81
2023-05-07T20:36:38.966Z,94866.69
2023-05-07T20:39:06.008Z,94863.69
2023-05-07T20:41:32.881Z,94876.47
2023-05-07T20:44:00.445Z,94865.81
2023-05-07T20:46:28.161Z,94868.84
2023-05-07T20:48:55.146Z,94873.31
2023-05-07T20:51:22.016Z,94870.72
2023-05-07T20:53:48.853Z,94878.44
2023-05-07T20:56:16.497Z,94872.34
2023-05-07T20:58:43.473Z,94882.59
2023-05-07T21:01:10.432Z,94878.50
2023-05-07T21:03:37.527Z,94880.16
2023-05-07T21:06:04.715Z,94882.78
2023-05-07T21:08:31.854Z,94882.75
2023-05-07T21:10:59.271Z,94885.53
2023-05-07T21:13:26.502Z,94889.56
2023-05-07T21:15:53.765Z,94886.34
2023-05-07T21:18:20.941Z,94873.81
2023-05-07T21:20:48.192Z,94872.97
2023-05-07T21:23:15.119Z,94879.22
2023-05-07T21:25:42.473Z,94901.28
2023-05-07T21:28:09.346Z,94867.31
2023-05-07T21:30:37.193Z,94864.44
2023-05-07T21:33:06.236Z,94893.88
2023-05-07T21:35:36.100Z,94898.81
2023-05-07T21:38:03.514Z,94877.50
2023-05-07T21:40:30.224Z,94884.38
2023-05-07T21:42:58.437Z,94904.03
2023-05-07T21:45:25.388Z,94911.34
2023-05-07T21:47:52.211Z,94909.22
2023-05-07T21:50:19.392Z,94876.44
2023-05-07T21:52:46.872Z,94893.44
2023-05-07T21:55:14.175Z,94898.25
2023-05-07T21:57:45.541Z,94907.19
2023-05-07T22:00:16.513Z,94917.53
2023-05-07T22:02:43.873Z,94918.06
2023-05-07T22:05:10.756Z,94932.16
2023-05-07T22:07:37.530Z,94934.25
2023-05-07T22:10:04.611Z,94937.63
2023-05-07T22:12:32.133Z,94951.50
2023-05-07T22:14:59.108Z,94942.91
2023-05-07T22:17:26.037Z,94947.53
2023-05-07T22:19:53.275Z,94946.47
2023-05-07T22:22:20.246Z,94955.75
2023-05-07T22:24:47.288Z,94954.50
2023-05-07T22:27:14.683Z,94958.84
2023-05-07T22:29:41.405Z,94963.25
2023-05-07T22:32:10.576Z,94970.66
2023-05-07T22:34:39.622Z,94956.72
2023-05-07T22:37:06.491Z,94969.47
2023-05-07T22:39:35.354Z,94953.66
2023-05-07T22:42:02.478Z,94963.59
2023-05-07T22:44:29.458Z,94958.81
2023-05-07T22:46:56.189Z,94968.94
2023-05-07T22:49:22.880Z,94969.72
2023-05-07T22:51:49.744Z,94963.88
2023-05-07T22:54:16.532Z,94965.84
2023-05-07T22:56:43.321Z,94965.25
2023-05-07T22:59:10.033Z,94966.16
2023-05-07T23:01:37.184Z,94964.19
2023-05-07T23:04:04.265Z,94967.41
2023-05-07T23:06:31.250Z,94977.59
2023-05-07T23:08:58.937Z,94962.84
2023-05-07T23:11:26.427Z,94973.09
2023-05-07T23:13:53.250Z,94971.19
2023-05-07T23:16:20.035Z,94974.38
2023-05-07T23:18:47.917Z,94973.31
2023-05-07T23:21:14.712Z,94975.88
2023-05-07T23:23:41.449Z,94986.09
2023-05-07T23:26:08.207Z,94967.66
2023-05-07T23:28:34.920Z,94977.00
2023-05-07T23:31:01.650Z,94968.41
2023-05-07T23:33:28.573Z,94961.72
2023-05-07T23:35:59.942Z,94973.69
2023-05-07T23:38:26.686Z,94980.31
2023-05-07T23:40:54.465Z,94968.94
2023-05-07T23:43:22.196Z,94969.75
2023-05-07T23:45:49.628Z,94970.84
2023-05-07T23:48:16.511Z,94962.34
2023-05-07T23:50:43.588Z,94972.66
2023-05-07T23:53:10.508Z,94974.50
2023-05-07T23:55:37.710Z,94972.56
2023-05-07T23:58:04.620Z,94975.88
